createdAt,value
2022-09-28T00:01:35.443Z,99251.09
2022-09-28T00:04:37.140Z,99247.66
2022-09-28T00:08:23.515Z,99242.66
2022-09-28T00:11:32.007Z,99249.53
2022-09-28T00:14:40.483Z,99162.00
2022-09-28T00:18:26.612Z,99226.56
2022-09-28T00:21:39.733Z,99226.50
2022-09-28T00:24:48.434Z,99211.16
2022-09-28T00:28:20.748Z,99217.56
2022-09-28T00:31:38.535Z,99211.72
2022-09-28T00:34:42.778Z,99214.91
2022-09-28T00:38:27.957Z,99219.91
2022-09-28T00:41:41.755Z,99226.34
2022-09-28T00:44:55.525Z,99233.38
2022-09-28T00:48:35.730Z,99241.06
2022-09-28T00:51:51.342Z,99231.50
2022-09-28T00:55:00.649Z,99237.84
2022-09-28T00:58:33.487Z,99197.69
2022-09-28T01:01:42.108Z,99241.47
2022-09-28T01:04:50.479Z,99203.25
2022-09-28T01:08:27.636Z,99202.88
2022-09-28T01:11:38.694Z,99244.19
2022-09-28T01:14:47.443Z,99244.81
2022-09-28T01:18:35.464Z,99248.59
2022-09-28T01:22:00.512Z,99223.59
2022-09-28T01:25:16.758Z,99248.72
2022-09-28T01:28:36.618Z,99164.09
2022-09-28T01:31:42.714Z,99243.75
2022-09-28T01:35:05.450Z,99256.50
2022-09-28T01:38:25.845Z,99252.50
2022-09-28T01:41:36.530Z,99273.62
2022-09-28T01:44:56.772Z,99220.31
2022-09-28T01:48:31.788Z,99260.88
2022-09-28T01:51:51.529Z,99247.97
2022-09-28T01:55:13.565Z,99270.37
2022-09-28T01:58:35.467Z,99282.09
2022-09-28T02:01:55.530Z,99289.88
2022-09-28T02:05:11.859Z,99285.84
2022-09-28T02:08:47.483Z,99278.19
2022-09-28T02:12:09.595Z,99274.09
2022-09-28T02:15:23.944Z,99231.63
2022-09-28T02:18:32.487Z,99273.53
2022-09-28T02:22:11.455Z,99267.75
2022-09-28T02:25:36.527Z,99221.84
2022-09-28T02:28:38.766Z,99214.94
2022-09-28T02:31:54.576Z,99252.53
2022-09-28T02:35:03.488Z,99281.28
2022-09-28T02:38:20.971Z,99285.66
2022-09-28T02:46:02.531Z,99300.31
2022-09-28T02:49:31.204Z,99253.91
2022-09-28T02:53:15.307Z,99254.16
2022-09-28T03:01:08.618Z,99295.47
2022-09-28T03:05:00.795Z,99242.19
2022-09-28T03:08:36.516Z,99310.66
2022-09-28T03:11:52.740Z,99297.84
2022-09-28T03:15:12.339Z,99303.75
2022-09-28T03:18:26.495Z,99255.53
2022-09-28T03:21:44.506Z,99312.88
2022-09-28T03:24:53.196Z,99301.59
2022-09-28T03:28:39.477Z,99322.81
2022-09-28T03:31:54.614Z,99319.25
2022-09-28T03:35:03.859Z,99278.81
2022-09-28T03:38:40.491Z,99251.53
2022-09-28T03:41:55.484Z,99309.56
2022-09-28T03:45:10.851Z,99313.63
2022-09-28T03:48:42.823Z,99302.84
2022-09-28T03:51:53.388Z,99282.91
2022-09-28T03:55:09.092Z,99310.38
2022-09-28T03:58:50.533Z,99327.53
2022-09-28T04:02:02.036Z,99219.75
2022-09-28T04:05:16.532Z,99237.22
2022-09-28T04:08:27.545Z,99276.53
2022-09-28T04:12:02.342Z,99311.00
2022-09-28T04:15:11.031Z,99308.72
2022-09-28T04:18:30.543Z,99308.94
2022-09-28T04:21:41.091Z,99263.94
2022-09-28T04:25:15.528Z,99262.44
2022-09-28T04:28:27.831Z,99316.88
2022-09-28T04:31:48.751Z,99302.91
2022-09-28T04:34:58.539Z,99257.25
2022-09-28T04:38:51.276Z,99306.78
2022-09-28T04:42:05.543Z,99313.19
2022-09-28T04:45:51.703Z,99312.97
2022-09-28T04:49:06.539Z,99318.28
2022-09-28T04:52:18.280Z,99307.37
2022-09-28T04:55:27.507Z,99290.28
2022-09-28T05:02:05.590Z,99274.59
2022-09-28T05:05:07.828Z,99294.88
2022-09-28T05:11:44.512Z,99311.62
2022-09-28T05:15:00.511Z,99272.66
2022-09-28T05:18:33.778Z,99309.44
2022-09-28T05:21:52.712Z,99262.09
2022-09-28T05:24:54.570Z,99315.28
2022-09-28T05:32:53.997Z,99315.28
2022-09-28T05:44:09.595Z,99312.88
2022-09-28T05:47:24.701Z,99319.12
2022-09-28T05:50:26.406Z,99301.31
2022-09-28T05:53:41.646Z,99303.09
2022-09-28T05:56:50.580Z,99318.25
2022-09-28T05:59:59.520Z,99274.56
2022-09-28T06:03:31.452Z,99304.94
2022-09-28T06:07:09.624Z,99290.78
2022-09-28T06:10:21.546Z,99293.56
2022-09-28T06:13:31.305Z,99285.50
2022-09-28T06:16:46.798Z,99305.50
2022-09-28T06:19:48.934Z,99278.13
2022-09-28T06:23:06.579Z,99306.25
2022-09-28T06:26:08.422Z,99303.81
2022-09-28T06:29:40.775Z,99302.28
2022-09-28T06:33:12.136Z,99297.78
2022-09-28T06:36:40.731Z,99290.00
2022-09-28T06:39:51.322Z,99308.78
2022-09-28T06:43:13.531Z,99292.72
2022-09-28T06:46:22.898Z,99321.09
2022-09-28T06:49:31.692Z,99307.25
2022-09-28T06:52:43.558Z,99319.66
2022-09-28T06:56:14.590Z,99328.06
2022-09-28T06:59:23.292Z,99318.16
2022-09-28T07:02:38.058Z,99329.78
2022-09-28T07:05:50.598Z,99327.97
2022-09-28T07:09:17.512Z,99324.72
2022-09-28T07:16:25.694Z,99318.19
2022-09-28T07:19:42.584Z,99311.78
2022-09-28T07:22:50.579Z,99323.91
2022-09-28T07:26:06.098Z,99328.59
2022-09-28T07:29:51.830Z,99326.56
2022-09-28T07:33:26.766Z,99327.00
2022-09-28T07:36:54.976Z,99327.25
2022-09-28T07:40:04.626Z,99320.28
2022-09-28T07:43:26.602Z,99304.12
2022-09-28T07:46:41.528Z,99303.09
2022-09-28T07:49:56.587Z,99292.22
2022-09-28T07:52:58.580Z,99314.75
2022-09-28T07:56:13.551Z,99320.41
2022-09-28T07:59:23.002Z,99318.31
2022-09-28T08:02:50.819Z,99326.97
2022-09-28T08:06:08.568Z,99325.47
2022-09-28T08:09:55.493Z,99327.66
2022-09-28T08:13:34.368Z,99326.97
2022-09-28T08:20:33.779Z,99306.66
2022-09-28T08:23:48.551Z,99300.87
2022-09-28T08:26:56.671Z,99293.56
2022-09-28T08:30:06.293Z,99296.03
2022-09-28T08:33:14.810Z,99280.50
2022-09-28T08:36:29.927Z,99278.31
2022-09-28T08:39:38.459Z,99284.84
2022-09-28T08:46:50.928Z,99297.34
2022-09-28T08:50:25.352Z,99285.50
2022-09-28T09:02:55.569Z,99307.78
2022-09-28T09:06:53.583Z,99304.97
2022-09-28T09:10:56.862Z,99301.56
2022-09-28T09:14:50.600Z,99299.53
2022-09-28T09:18:17.825Z,99303.28
2022-09-28T09:30:20.927Z,99286.22
2022-09-28T09:38:24.590Z,99284.72
2022-09-28T09:42:06.692Z,99182.72
2022-09-28T09:45:51.739Z,99273.09
2022-09-28T09:49:07.761Z,99263.25
2022-09-28T09:55:48.258Z,99271.78
2022-09-28T09:59:32.847Z,99279.47
2022-09-28T10:03:02.600Z,99281.19
2022-09-28T10:06:32.676Z,99273.75
2022-09-28T10:10:22.850Z,99282.84
2022-09-28T10:13:51.116Z,99258.56
2022-09-28T10:17:26.605Z,99284.31
2022-09-28T10:20:38.850Z,99288.81
2022-09-28T10:23:50.129Z,99284.50
2022-09-28T10:27:12.635Z,99276.84
2022-09-28T10:30:25.818Z,99287.88
2022-09-28T10:41:18.382Z,99288.31
2022-09-28T10:45:27.768Z,99276.03
2022-09-28T10:56:43.051Z,99278.91
2022-09-28T11:00:47.329Z,99271.72
2022-09-28T11:04:28.734Z,99265.66
2022-09-28T11:19:31.743Z,99252.75
2022-09-28T11:22:45.918Z,99212.56
2022-09-28T11:26:19.664Z,99137.16
2022-09-28T11:29:57.945Z,99262.13
2022-09-28T11:33:54.210Z,99238.22
2022-09-28T11:38:22.422Z,99247.94
2022-09-28T11:46:00.767Z,99247.59
2022-09-28T11:53:25.481Z,99230.66
2022-09-28T11:56:49.941Z,99253.41
2022-09-28T12:00:30.897Z,99242.19
2022-09-28T12:04:15.666Z,99235.72
2022-09-28T12:08:06.847Z,99232.84
2022-09-28T12:11:35.735Z,99220.84
2022-09-28T12:15:42.337Z,99193.34
2022-09-28T12:19:33.453Z,99185.16
2022-09-28T12:27:24.888Z,99207.00
2022-09-28T12:30:48.650Z,99199.06
2022-09-28T12:34:17.384Z,99197.00
2022-09-28T12:38:00.631Z,99186.94
2022-09-28T12:42:00.748Z,99172.88
2022-09-28T12:46:31.734Z,99180.94
2022-09-28T12:54:02.708Z,99151.50
2022-09-28T12:57:55.454Z,99165.97
2022-09-28T13:01:35.115Z,99165.38
2022-09-28T13:04:52.924Z,99154.19
2022-09-28T13:08:53.789Z,99172.66
2022-09-28T13:12:28.631Z,99166.66
2022-09-28T13:15:47.818Z,99149.44
2022-09-28T13:19:19.836Z,99157.41
2022-09-28T13:23:39.770Z,99156.69
2022-09-28T13:27:34.832Z,99156.66
2022-09-28T13:30:45.759Z,99142.72
2022-09-28T13:33:57.288Z,99134.97
2022-09-28T13:37:29.672Z,99169.81
2022-09-28T13:40:57.760Z,99167.47
2022-09-28T13:44:39.627Z,99147.56
2022-09-28T13:48:14.490Z,99141.44
2022-09-28T13:51:37.647Z,99136.16
2022-09-28T13:55:06.608Z,99156.06
2022-09-28T13:58:32.392Z,99159.16
2022-09-28T14:01:46.755Z,99131.16
2022-09-28T14:05:08.648Z,99149.59
2022-09-28T14:08:30.021Z,99126.16
2022-09-28T14:12:04.647Z,99154.97
2022-09-28T14:15:49.699Z,99125.00
2022-09-28T14:19:10.384Z,99155.53
2022-09-28T14:22:54.677Z,99157.34
2022-09-28T14:26:25.494Z,99128.78
2022-09-28T14:29:39.851Z,99149.84
2022-09-28T14:33:03.675Z,99138.16
2022-09-28T14:36:08.042Z,99109.41
2022-09-28T14:39:28.669Z,99132.94
2022-09-28T14:42:46.677Z,99137.69
2022-09-28T14:45:48.336Z,99119.16
2022-09-28T14:49:09.917Z,99142.50
2022-09-28T14:52:20.077Z,99136.91
2022-09-28T14:55:34.205Z,99129.22
2022-09-28T14:58:42.747Z,99107.44
2022-09-28T15:02:11.964Z,99124.50
2022-09-28T15:05:30.758Z,99083.12
2022-09-28T15:08:39.949Z,99115.50
2022-09-28T15:11:54.684Z,99129.44
2022-09-28T15:14:59.420Z,99122.53
2022-09-28T15:18:32.684Z,99118.75
2022-09-28T15:21:49.668Z,99121.22
2022-09-28T15:25:02.029Z,99102.13
2022-09-28T15:28:25.668Z,99104.13
2022-09-28T15:31:30.473Z,99109.78
2022-09-28T15:34:44.747Z,99113.91
2022-09-28T15:38:01.704Z,99114.50
2022-09-28T15:41:06.440Z,99097.62
2022-09-28T15:44:37.702Z,99069.88
2022-09-28T15:47:47.707Z,99109.56
2022-09-28T15:51:14.803Z,99099.53
2022-09-28T15:54:28.370Z,99116.87
2022-09-28T15:57:42.705Z,99105.97
2022-09-28T16:01:29.709Z,99120.78
2022-09-28T16:04:52.743Z,99092.22
2022-09-28T16:08:10.775Z,99122.13
2022-09-28T16:11:40.681Z,99119.53
2022-09-28T16:15:09.415Z,99121.84
2022-09-28T16:18:26.705Z,99111.44
2022-09-28T16:21:54.703Z,99068.16
2022-09-28T16:25:03.390Z,99114.69
2022-09-28T16:28:50.784Z,99093.34
2022-09-28T16:31:59.695Z,99113.72
2022-09-28T16:35:23.089Z,99120.31
2022-09-28T16:38:37.724Z,99099.91
2022-09-28T16:41:41.795Z,99120.62
2022-09-28T16:44:56.697Z,99110.22
2022-09-28T16:47:58.675Z,99120.62
2022-09-28T16:51:13.695Z,99106.38
2022-09-28T16:54:32.178Z,99103.03
2022-09-28T16:58:18.424Z,99125.22
2022-09-28T17:02:35.476Z,99129.84
2022-09-28T17:06:05.574Z,99140.34
2022-09-28T17:13:22.693Z,99132.63
2022-09-28T17:17:08.712Z,99135.41
2022-09-28T17:20:35.957Z,99128.44
2022-09-28T17:23:57.768Z,99126.31
2022-09-28T17:27:43.540Z,99111.31
2022-09-28T17:31:35.178Z,99131.69
2022-09-28T17:35:30.578Z,99110.63
2022-09-28T17:39:25.731Z,99129.34
2022-09-28T17:43:07.348Z,99111.59
2022-09-28T17:46:34.922Z,99136.03
2022-09-28T17:49:49.776Z,99140.13
2022-09-28T17:52:59.763Z,99143.84
2022-09-28T17:56:32.244Z,99133.22
2022-09-28T17:59:48.011Z,99144.03
2022-09-28T18:02:50.941Z,99110.75
2022-09-28T18:06:09.728Z,99136.44
2022-09-28T18:13:14.820Z,99155.94
2022-09-28T18:16:43.983Z,99162.19
2022-09-28T18:20:19.116Z,99159.25
2022-09-28T18:23:21.089Z,99154.44
2022-09-28T18:26:36.797Z,99138.31
2022-09-28T18:29:46.597Z,99167.63
2022-09-28T18:33:21.046Z,99169.75
2022-09-28T18:44:23.091Z,99172.59
2022-09-28T18:47:57.831Z,99170.69
2022-09-28T18:51:41.201Z,99180.84
2022-09-28T18:55:18.926Z,99166.88
2022-09-28T18:59:00.839Z,99181.38
2022-09-28T19:02:30.891Z,99180.25
2022-09-28T19:09:34.335Z,99184.91
2022-09-28T19:12:42.608Z,99181.28
2022-09-28T19:16:27.087Z,99182.84
2022-09-28T19:19:48.680Z,99185.78
2022-09-28T19:23:48.745Z,99189.75
2022-09-28T19:27:15.825Z,99160.25
2022-09-28T19:30:44.470Z,99176.97
2022-09-28T19:34:14.222Z,99171.53
2022-09-28T19:37:22.959Z,99177.34
2022-09-28T19:40:55.878Z,99154.31
2022-09-28T19:44:26.892Z,99160.31
2022-09-28T19:47:41.815Z,99177.72
2022-09-28T19:51:01.632Z,99175.91
2022-09-28T20:01:44.596Z,99157.84
2022-09-28T20:05:21.572Z,99159.56
2022-09-28T20:08:45.770Z,99164.72
2022-09-28T20:12:35.823Z,99161.66
2022-09-28T20:16:30.923Z,99154.09
2022-09-28T20:19:53.418Z,99156.50
2022-09-28T20:23:29.056Z,99159.94
2022-09-28T20:27:17.476Z,99158.88
2022-09-28T20:31:14.139Z,99163.19
2022-09-28T20:34:22.807Z,99159.72
2022-09-28T20:37:58.096Z,99166.78
2022-09-28T20:41:26.215Z,99156.31
2022-09-28T20:53:09.715Z,99140.81
2022-09-28T20:56:34.364Z,99130.69
2022-09-28T21:00:29.155Z,99133.09
2022-09-28T21:04:23.852Z,99136.81
2022-09-28T21:07:48.079Z,99131.47
2022-09-28T21:11:06.843Z,99132.31
2022-09-28T21:14:41.875Z,99133.00
2022-09-28T21:17:51.122Z,99118.28
2022-09-28T21:32:49.856Z,99109.22
2022-09-28T21:36:11.917Z,99109.41
2022-09-28T21:39:46.879Z,99112.50
2022-09-28T21:43:16.226Z,99097.78
2022-09-28T21:46:24.949Z,99116.03
2022-09-28T21:49:33.436Z,99114.31
2022-09-28T21:53:07.846Z,99091.94
2022-09-28T22:00:19.903Z,99119.41
2022-09-28T22:03:29.443Z,99112.59
2022-09-28T22:06:37.862Z,99123.09
2022-09-28T22:09:59.860Z,99114.25
2022-09-28T22:13:29.484Z,99122.31
2022-09-28T22:16:57.960Z,99124.03
2022-09-28T22:20:27.774Z,99110.19
2022-09-28T22:24:07.924Z,99126.25
2022-09-28T22:27:22.880Z,99122.56
2022-09-28T22:30:44.448Z,99104.50
2022-09-28T22:34:30.716Z,99091.12
2022-09-28T22:38:19.375Z,99103.94
2022-09-28T22:41:46.903Z,99100.34
2022-09-28T22:45:18.476Z,99090.28
2022-09-28T22:48:54.876Z,99097.84
2022-09-28T22:52:22.874Z,99101.37
2022-09-28T23:03:07.347Z,99118.53
2022-09-28T23:06:37.423Z,99104.41
2022-09-28T23:10:05.717Z,99106.88
2022-09-28T23:24:58.874Z,99107.47
2022-09-28T23:28:08.024Z,99095.56
2022-09-28T23:31:22.061Z,99106.81
2022-09-28T23:38:39.259Z,99083.34
2022-09-28T23:42:01.119Z,99086.16
2022-09-28T23:45:16.243Z,99105.53
2022-09-28T23:48:51.039Z,99101.81
2022-09-28T23:51:59.876Z,99100.09
2022-09-28T23:55:28.253Z,99111.63
2022-09-28T23:59:15.186Z,99104.66
